aviador You're here:

GMTN Decoded Metar

TETOUAN in MOROCCO
Report Time2017-10-17 20:00:00
UTC Time2017-10-17 20:31:30
Flight Rules vfr VFR
Wind050° at 03 kt
W.Decomp.*RWY 06: 3.0 kt HW 0.5 kt LCW
W.Rank050° ranks 18
Current wind is below 050° avg. (5.7)
Visibility8000 m
Phenomena:N/A
Clouds:Scattered 020 Hf
Scattered 120 Hf
Expected CloudBase > 1,200 ft AGL from Temp-Dew spread
CeilingNone
Temp21°C (ISA +6)
Dew Point18°C (83% RH)
QNH1019 hPa
Density Alt814 ft
Elevation33 ft
Report Wrong Elevation
Raw Report
GMTN 172000Z 05003KT 8000 SCT020 SCT120 21/18 Q1019 NOSIG=

Extra information for GMTN:More info

Metar Taf Metar & Taf Last 4 Metars F.Rules Stats Wind Profile Meteogram Temp Stats Airport Information Weather charts Add Link Nearby VenuesMetar ALERT Operation Metar Decoded Social comments